Pagrindinis puslapis
METAR-TAF:

METAR-TAF

Oro uostai :

Rio Brankas, Akrė, Brazilija

platuma: 10-00S, ilguma: 067-48W, Aukštis: 142 m

Dabartinis oras

Ataskaita buvo paskelbta 13 minutes, ne 09:00 UTC
Vėjas 1 kt iš Rytų
Temperatūra 21°C
Drėgmė 100%
Slėgis 1012 hPa
Matomumas 10 km arba daugiau
Mažai debesys ne aukštis 2500 ft

METAR: SBRB 230900Z 08001KT 9999 FEW025 21/21 Q1012

Laikas: 04:13 (09:13 UTC)

Prognozė

Ataskaita buvo paskelbta 6 valandos ir 43 minutes, ne 02:30 UTC
Prognozė galioja nuo 23 metu 06 UTC su 23 metu 18 UTC
Vėjas kt iš Šiaurės
Matomumas 10 km arba daugiau
Išsisklaidę debesys ne aukštis 2500 ft
Tapsmas
nuo 23 metu 09 UTC su 23 metu 11 UTC
Vėjas 5 kt iš Šiaurės/Šiaurės Vakarų
Išsisklaidę debesys ne aukštis 3000 ft

TAF: SBRB 230230Z 2306/2318 00000KT 9999 SCT025 TN22/2309Z TX31/2318Z BECMG 2309/2311 33005KT SCT030 RMK PGU

Orai ataskaitas ir orų prognozės (METAR, TAF).

turimą stotys yra geltonos ir raudonos taškus žemėlapyje.

Perkelti pele per norėdami pamatyti stoties vardą.

Tada spustelėkite, norėdami matyti oro stebėjimo ir prognozės.

Norėdami pakeisti žemėlapį: spustelėkite ant žalios mygtukų su juodo kryžiaus žemyn,; žalią mygtuką su brūkšneliu, jei norite nutolinti; arba žalių rodyklių gretimoms žemėlapius.


METAR-TAF: